sensor_id;sensor_type;location;lat;lon;timestamp;temperature;humidity
75217;HTU21D;63800;51.972;5.682;2024-01-10T00:01:32;-15.62;118.99
75217;HTU21D;63800;51.972;5.682;2024-01-10T00:03:57;-15.73;118.99
75217;HTU21D;63800;51.972;5.682;2024-01-10T00:06:23;-15.72;118.99
75217;HTU21D;63800;51.972;5.682;2024-01-10T00:08:49;-15.82;118.99
75217;HTU21D;63800;51.972;5.682;2024-01-10T00:11:15;-15.77;118.99
75217;HTU21D;63800;51.972;5.682;2024-01-10T00:13:41;-15.75;118.99
75217;HTU21D;63800;51.972;5.682;2024-01-10T00:16:06;-15.78;118.99
75217;HTU21D;63800;51.972;5.682;2024-01-10T00:18:32;-15.62;118.99
75217;HTU21D;63800;51.972;5.682;2024-01-10T00:20:58;-15.73;118.99
75217;HTU21D;63800;51.972;5.682;2024-01-10T00:23:23;-15.72;118.99
75217;HTU21D;63800;51.972;5.682;2024-01-10T00:25:49;-15.72;118.99
75217;HTU21D;63800;51.972;5.682;2024-01-10T00:28:15;-15.84;118.99
75217;HTU21D;63800;51.972;5.682;2024-01-10T00:30:44;-15.90;118.99
75217;HTU21D;63800;51.972;5.682;2024-01-10T00:33:10;-15.95;118.99
75217;HTU21D;63800;51.972;5.682;2024-01-10T00:35:36;-15.93;118.99
75217;HTU21D;63800;51.972;5.682;2024-01-10T00:38:02;-15.89;118.99
75217;HTU21D;63800;51.972;5.682;2024-01-10T00:40:27;-15.94;118.99
75217;HTU21D;63800;51.972;5.682;2024-01-10T00:42:53;-16.02;118.99
75217;HTU21D;63800;51.972;5.682;2024-01-10T00:45:18;-16.06;118.99
75217;HTU21D;63800;51.972;5.682;2024-01-10T00:47:44;-16.02;118.99
75217;HTU21D;63800;51.972;5.682;2024-01-10T00:50:09;-15.89;118.99
75217;HTU21D;63800;51.972;5.682;2024-01-10T00:52:35;-16.03;118.99
75217;HTU21D;63800;51.972;5.682;2024-01-10T00:55:01;-16.04;118.99
75217;HTU21D;63800;51.972;5.682;2024-01-10T00:57:26;-15.91;118.99
75217;HTU21D;63800;51.972;5.682;2024-01-10T00:59:52;-15.92;118.99
75217;HTU21D;63800;51.972;5.682;2024-01-10T01:02:17;-15.99;118.99
75217;HTU21D;63800;51.972;5.682;2024-01-10T01:04:43;-15.93;118.99
75217;HTU21D;63800;51.972;5.682;2024-01-10T01:07:09;-15.94;118.99
75217;HTU21D;63800;51.972;5.682;2024-01-10T01:09:34;-15.92;118.99
75217;HTU21D;63800;51.972;5.682;2024-01-10T01:12:00;-15.90;118.99
75217;HTU21D;63800;51.972;5.682;2024-01-10T01:14:25;-15.83;118.99
75217;HTU21D;63800;51.972;5.682;2024-01-10T01:16:51;-15.83;118.99
75217;HTU21D;63800;51.972;5.682;2024-01-10T01:19:16;-15.94;118.99
75217;HTU21D;63800;51.972;5.682;2024-01-10T01:21:42;-15.91;118.99
75217;HTU21D;63800;51.972;5.682;2024-01-10T01:24:08;-15.99;118.99
75217;HTU21D;63800;51.972;5.682;2024-01-10T01:26:33;-15.98;118.99
75217;HTU21D;63800;51.972;5.682;2024-01-10T01:28:59;-15.90;118.99
75217;HTU21D;63800;51.972;5.682;2024-01-10T01:31:24;-16.02;118.99
75217;HTU21D;63800;51.972;5.682;2024-01-10T01:33:50;-16.00;118.99
75217;HTU21D;63800;51.972;5.682;2024-01-10T01:36:15;-15.93;118.99
75217;HTU21D;63800;51.972;5.682;2024-01-10T01:38:40;-15.89;118.99
75217;HTU21D;63800;51.972;5.682;2024-01-10T01:41:06;-15.98;118.99
75217;HTU21D;63800;51.972;5.682;2024-01-10T01:43:32;-15.94;118.99
75217;HTU21D;63800;51.972;5.682;2024-01-10T01:45:57;-16.02;118.99
75217;HTU21D;63800;51.972;5.682;2024-01-10T01:48:24;-16.11;118.99
75217;HTU21D;63800;51.972;5.682;2024-01-10T01:51:02;-16.03;118.99
75217;HTU21D;63800;51.972;5.682;2024-01-10T01:53:28;-16.02;118.99
75217;HTU21D;63800;51.972;5.682;2024-01-10T01:55:54;-15.92;118.99
75217;HTU21D;63800;51.972;5.682;2024-01-10T01:58:22;-15.95;118.99
75217;HTU21D;63800;51.972;5.682;2024-01-10T02:00:48;-16.04;118.99
75217;HTU21D;63800;51.972;5.682;2024-01-10T02:03:13;-15.95;118.99
75217;HTU21D;63800;51.972;5.682;2024-01-10T02:05:39;-15.93;118.99
75217;HTU21D;63800;51.972;5.682;2024-01-10T02:08:05;-16.02;118.99
75217;HTU21D;63800;51.972;5.682;2024-01-10T02:10:31;-16.13;118.99
75217;HTU21D;63800;51.972;5.682;2024-01-10T02:12:56;-16.13;118.99
75217;HTU21D;63800;51.972;5.682;2024-01-10T02:15:22;-16.17;118.99
75217;HTU21D;63800;51.972;5.682;2024-01-10T02:17:47;-16.17;118.99
75217;HTU21D;63800;51.972;5.682;2024-01-10T02:20:14;-16.05;118.99
75217;HTU21D;63800;51.972;5.682;2024-01-10T02:22:42;-16.07;118.99
75217;HTU21D;63800;51.972;5.682;2024-01-10T02:25:11;-16.04;118.99
75217;HTU21D;63800;51.972;5.682;2024-01-10T02:27:37;-15.91;118.99
75217;HTU21D;63800;51.972;5.682;2024-01-10T02:30:03;-16.10;118.99
75217;HTU21D;63800;51.972;5.682;2024-01-10T02:32:29;-16.05;118.99
75217;HTU21D;63800;51.972;5.682;2024-01-10T02:34:55;-16.21;118.99
75217;HTU21D;63800;51.972;5.682;2024-01-10T02:37:20;-16.07;118.99
75217;HTU21D;63800;51.972;5.682;2024-01-10T02:39:46;-15.96;118.99
75217;HTU21D;63800;51.972;5.682;2024-01-10T02:42:11;-16.10;118.99
75217;HTU21D;63800;51.972;5.682;2024-01-10T02:44:37;-16.24;118.99
75217;HTU21D;63800;51.972;5.682;2024-01-10T02:47:03;-16.11;118.99
75217;HTU21D;63800;51.972;5.682;2024-01-10T02:49:28;-15.98;118.99
75217;HTU21D;63800;51.972;5.682;2024-01-10T02:51:54;-16.14;118.99
75217;HTU21D;63800;51.972;5.682;2024-01-10T02:54:19;-16.27;118.99
75217;HTU21D;63800;51.972;5.682;2024-01-10T02:56:44;-16.25;118.99
75217;HTU21D;63800;51.972;5.682;2024-01-10T02:59:10;-16.21;118.99
75217;HTU21D;63800;51.972;5.682;2024-01-10T03:01:35;-16.20;118.99
75217;HTU21D;63800;51.972;5.682;2024-01-10T03:04:01;-16.17;118.99
75217;HTU21D;63800;51.972;5.682;2024-01-10T03:06:26;-16.17;118.99
75217;HTU21D;63800;51.972;5.682;2024-01-10T03:08:52;-16.28;118.99
75217;HTU21D;63800;51.972;5.682;2024-01-10T03:11:17;-16.32;118.99
75217;HTU21D;63800;51.972;5.682;2024-01-10T03:13:46;-16.38;118.99
75217;HTU21D;63800;51.972;5.682;2024-01-10T03:16:11;-16.33;118.99
75217;HTU21D;63800;51.972;5.682;2024-01-10T03:18:37;-16.32;118.99
75217;HTU21D;63800;51.972;5.682;2024-01-10T03:21:02;-16.22;118.99
75217;HTU21D;63800;51.972;5.682;2024-01-10T03:23:28;-16.33;118.99
75217;HTU21D;63800;51.972;5.682;2024-01-10T03:25:53;-16.37;118.99
75217;HTU21D;63800;51.972;5.682;2024-01-10T03:28:18;-16.32;118.99
75217;HTU21D;63800;51.972;5.682;2024-01-10T03:30:44;-16.19;118.99
75217;HTU21D;63800;51.972;5.682;2024-01-10T03:33:10;-16.26;118.99
75217;HTU21D;63800;51.972;5.682;2024-01-10T03:35:36;-16.24;118.99
75217;HTU21D;63800;51.972;5.682;2024-01-10T03:38:01;-16.24;118.99
75217;HTU21D;63800;51.972;5.682;2024-01-10T03:40:27;-16.14;118.99
75217;HTU21D;63800;51.972;5.682;2024-01-10T03:42:52;-16.18;118.99
75217;HTU21D;63800;51.972;5.682;2024-01-10T03:45:18;-16.06;118.99
75217;HTU21D;63800;51.972;5.682;2024-01-10T03:47:46;-16.12;118.99
75217;HTU21D;63800;51.972;5.682;2024-01-10T03:50:16;-16.19;118.99
75217;HTU21D;63800;51.972;5.682;2024-01-10T03:52:43;-16.22;118.99
75217;HTU21D;63800;51.972;5.682;2024-01-10T03:55:08;-16.24;118.99
75217;HTU21D;63800;51.972;5.682;2024-01-10T03:57:34;-16.33;118.99
75217;HTU21D;63800;51.972;5.682;2024-01-10T03:59:59;-16.36;118.99
75217;HTU21D;63800;51.972;5.682;2024-01-10T04:02:26;-16.29;118.99
75217;HTU21D;63800;51.972;5.682;2024-01-10T04:04:53;-16.39;118.99
75217;HTU21D;63800;51.972;5.682;2024-01-10T04:07:18;-16.35;118.99
75217;HTU21D;63800;51.972;5.682;2024-01-10T04:09:44;-16.24;118.99
75217;HTU21D;63800;51.972;5.682;2024-01-10T04:12:09;-16.22;118.99
75217;HTU21D;63800;51.972;5.682;2024-01-10T04:14:35;-16.44;118.99
75217;HTU21D;63800;51.972;5.682;2024-01-10T04:17:00;-16.38;118.99
75217;HTU21D;63800;51.972;5.682;2024-01-10T04:19:26;-16.32;118.99
75217;HTU21D;63800;51.972;5.682;2024-01-10T04:21:52;-16.43;118.99
75217;HTU21D;63800;51.972;5.682;2024-01-10T04:24:18;-16.36;118.99
75217;HTU21D;63800;51.972;5.682;2024-01-10T04:26:44;-16.35;118.99
75217;HTU21D;63800;51.972;5.682;2024-01-10T04:29:10;-16.36;118.99
75217;HTU21D;63800;51.972;5.682;2024-01-10T04:31:35;-16.41;118.99
75217;HTU21D;63800;51.972;5.682;2024-01-10T04:34:01;-16.32;118.99
75217;HTU21D;63800;51.972;5.682;2024-01-10T04:36:27;-16.38;118.99
75217;HTU21D;63800;51.972;5.682;2024-01-10T04:38:52;-16.47;118.99
75217;HTU21D;63800;51.972;5.682;2024-01-10T04:41:18;-16.46;118.99
75217;HTU21D;63800;51.972;5.682;2024-01-10T04:43:44;-16.38;118.99
75217;HTU21D;63800;51.972;5.682;2024-01-10T04:46:09;-16.51;118.99
75217;HTU21D;63800;51.972;5.682;2024-01-10T04:48:36;-16.43;118.99
75217;HTU21D;63800;51.972;5.682;2024-01-10T04:51:01;-16.38;118.99
75217;HTU21D;63800;51.972;5.682;2024-01-10T04:53:27;-16.34;118.99
75217;HTU21D;63800;51.972;5.682;2024-01-10T04:55:52;-16.37;118.99
75217;HTU21D;63800;51.972;5.682;2024-01-10T04:58:18;-16.33;118.99
75217;HTU21D;63800;51.972;5.682;2024-01-10T05:00:43;-16.39;118.99
75217;HTU21D;63800;51.972;5.682;2024-01-10T05:03:08;-16.33;118.99
75217;HTU21D;63800;51.972;5.682;2024-01-10T05:05:34;-16.34;118.99
75217;HTU21D;63800;51.972;5.682;2024-01-10T05:07:59;-16.36;118.99
75217;HTU21D;63800;51.972;5.682;2024-01-10T05:10:26;-16.33;118.99
75217;HTU21D;63800;51.972;5.682;2024-01-10T05:12:52;-16.32;118.99
75217;HTU21D;63800;51.972;5.682;2024-01-10T05:15:17;-16.24;118.99
75217;HTU21D;63800;51.972;5.682;2024-01-10T05:17:43;-16.28;118.99
75217;HTU21D;63800;51.972;5.682;2024-01-10T05:20:08;-16.36;118.99
75217;HTU21D;63800;51.972;5.682;2024-01-10T05:22:35;-16.41;118.99
75217;HTU21D;63800;51.972;5.682;2024-01-10T05:25:00;-16.46;118.99
75217;HTU21D;63800;51.972;5.682;2024-01-10T05:27:26;-16.26;118.99
75217;HTU21D;63800;51.972;5.682;2024-01-10T05:29:52;-16.20;118.99
75217;HTU21D;63800;51.972;5.682;2024-01-10T05:32:17;-16.34;118.99
75217;HTU21D;63800;51.972;5.682;2024-01-10T05:34:44;-16.46;118.99
75217;HTU21D;63800;51.972;5.682;2024-01-10T05:37:09;-16.43;118.99
75217;HTU21D;63800;51.972;5.682;2024-01-10T05:39:35;-16.35;118.99
75217;HTU21D;63800;51.972;5.682;2024-01-10T05:42:00;-16.35;118.99
75217;HTU21D;63800;51.972;5.682;2024-01-10T05:44:28;-16.40;118.99
75217;HTU21D;63800;51.972;5.682;2024-01-10T05:46:53;-16.42;118.99
75217;HTU21D;63800;51.972;5.682;2024-01-10T05:49:18;-16.47;118.99
75217;HTU21D;63800;51.972;5.682;2024-01-10T05:51:44;-16.49;118.99
75217;HTU21D;63800;51.972;5.682;2024-01-10T05:54:09;-16.29;118.99
75217;HTU21D;63800;51.972;5.682;2024-01-10T05:56:35;-16.49;118.99
75217;HTU21D;63800;51.972;5.682;2024-01-10T05:59:00;-16.40;118.99
75217;HTU21D;63800;51.972;5.682;2024-01-10T06:01:26;-16.48;118.99
75217;HTU21D;63800;51.972;5.682;2024-01-10T06:03:52;-16.29;118.99
75217;HTU21D;63800;51.972;5.682;2024-01-10T06:06:17;-16.20;118.99
75217;HTU21D;63800;51.972;5.682;2024-01-10T06:08:43;-16.27;118.99
75217;HTU21D;63800;51.972;5.682;2024-01-10T06:11:08;-16.44;118.99
75217;HTU21D;63800;51.972;5.682;2024-01-10T06:13:35;-16.50;118.99
75217;HTU21D;63800;51.972;5.682;2024-01-10T06:16:02;-16.40;118.99
75217;HTU21D;63800;51.972;5.682;2024-01-10T06:18:28;-16.32;118.99
75217;HTU21D;63800;51.972;5.682;2024-01-10T06:20:53;-16.40;118.99
75217;HTU21D;63800;51.972;5.682;2024-01-10T06:23:19;-16.33;118.99
75217;HTU21D;63800;51.972;5.682;2024-01-10T06:25:44;-16.44;118.99
75217;HTU21D;63800;51.972;5.682;2024-01-10T06:28:09;-16.43;118.99
75217;HTU21D;63800;51.972;5.682;2024-01-10T06:30:35;-16.46;118.99
75217;HTU21D;63800;51.972;5.682;2024-01-10T06:33:01;-16.46;118.99
75217;HTU21D;63800;51.972;5.682;2024-01-10T06:35:26;-16.36;118.99
75217;HTU21D;63800;51.972;5.682;2024-01-10T06:37:52;-16.29;118.99
75217;HTU21D;63800;51.972;5.682;2024-01-10T06:40:18;-16.41;118.99
75217;HTU21D;63800;51.972;5.682;2024-01-10T06:42:43;-16.39;118.99
75217;HTU21D;63800;51.972;5.682;2024-01-10T06:45:09;-16.44;118.99
75217;HTU21D;63800;51.972;5.682;2024-01-10T06:47:37;-16.32;118.99
75217;HTU21D;63800;51.972;5.682;2024-01-10T06:50:03;-16.43;118.99
75217;HTU21D;63800;51.972;5.682;2024-01-10T06:52:30;-16.30;118.99
75217;HTU21D;63800;51.972;5.682;2024-01-10T06:54:56;-16.42;118.99
75217;HTU21D;63800;51.972;5.682;2024-01-10T06:57:22;-16.44;118.99
75217;HTU21D;63800;51.972;5.682;2024-01-10T06:59:48;-16.27;118.99
75217;HTU21D;63800;51.972;5.682;2024-01-10T07:02:14;-16.40;118.99
75217;HTU21D;63800;51.972;5.682;2024-01-10T07:04:39;-16.44;118.99
75217;HTU21D;63800;51.972;5.682;2024-01-10T07:07:05;-16.47;118.99
75217;HTU21D;63800;51.972;5.682;2024-01-10T07:09:31;-16.43;118.99
75217;HTU21D;63800;51.972;5.682;2024-01-10T07:11:56;-16.44;118.99
75217;HTU21D;63800;51.972;5.682;2024-01-10T07:14:22;-16.37;118.99
75217;HTU21D;63800;51.972;5.682;2024-01-10T07:16:47;-16.40;118.99
75217;HTU21D;63800;51.972;5.682;2024-01-10T07:19:13;-16.46;118.99
75217;HTU21D;63800;51.972;5.682;2024-01-10T07:21:42;-16.58;118.99
75217;HTU21D;63800;51.972;5.682;2024-01-10T07:24:08;-16.56;118.99
75217;HTU21D;63800;51.972;5.682;2024-01-10T07:26:37;-16.56;118.99
75217;HTU21D;63800;51.972;5.682;2024-01-10T07:29:03;-16.59;118.99
75217;HTU21D;63800;51.972;5.682;2024-01-10T07:31:29;-16.68;118.99
75217;HTU21D;63800;51.972;5.682;2024-01-10T07:33:56;-16.51;118.99
75217;HTU21D;63800;51.972;5.682;2024-01-10T07:36:23;-16.59;118.99
75217;HTU21D;63800;51.972;5.682;2024-01-10T07:38:49;-16.52;118.99
75217;HTU21D;63800;51.972;5.682;2024-01-10T07:41:14;-16.55;118.99
75217;HTU21D;63800;51.972;5.682;2024-01-10T07:43:39;-16.55;118.99
75217;HTU21D;63800;51.972;5.682;2024-01-10T07:46:05;-16.64;118.99
75217;HTU21D;63800;51.972;5.682;2024-01-10T07:48:30;-16.52;118.99
75217;HTU21D;63800;51.972;5.682;2024-01-10T07:50:56;-16.54;118.99
75217;HTU21D;63800;51.972;5.682;2024-01-10T07:53:22;-16.65;118.99
75217;HTU21D;63800;51.972;5.682;2024-01-10T07:55:47;-16.52;118.99
75217;HTU21D;63800;51.972;5.682;2024-01-10T07:58:12;-16.55;118.99
75217;HTU21D;63800;51.972;5.682;2024-01-10T08:00:38;-16.56;118.99
75217;HTU21D;63800;51.972;5.682;2024-01-10T08:03:04;-16.52;118.99
75217;HTU21D;63800;51.972;5.682;2024-01-10T08:05:29;-16.44;118.99
75217;HTU21D;63800;51.972;5.682;2024-01-10T08:07:55;-16.58;118.99
75217;HTU21D;63800;51.972;5.682;2024-01-10T08:10:21;-16.33;118.99
75217;HTU21D;63800;51.972;5.682;2024-01-10T08:12:47;-16.47;118.99
75217;HTU21D;63800;51.972;5.682;2024-01-10T08:15:12;-16.53;118.99
75217;HTU21D;63800;51.972;5.682;2024-01-10T08:17:39;-16.48;118.99
75217;HTU21D;63800;51.972;5.682;2024-01-10T08:20:08;-16.52;118.99
75217;HTU21D;63800;51.972;5.682;2024-01-10T08:22:36;-16.43;118.99
75217;HTU21D;63800;51.972;5.682;2024-01-10T08:25:01;-16.43;118.99
75217;HTU21D;63800;51.972;5.682;2024-01-10T08:27:28;-16.51;118.99
75217;HTU21D;63800;51.972;5.682;2024-01-10T08:29:53;-16.41;118.99
75217;HTU21D;63800;51.972;5.682;2024-01-10T08:32:19;-16.37;118.99
75217;HTU21D;63800;51.972;5.682;2024-01-10T08:34:47;-16.44;118.99
75217;HTU21D;63800;51.972;5.682;2024-01-10T08:37:14;-16.33;118.99
75217;HTU21D;63800;51.972;5.682;2024-01-10T08:39:39;-16.35;118.99
75217;HTU21D;63800;51.972;5.682;2024-01-10T08:42:05;-16.37;118.99
75217;HTU21D;63800;51.972;5.682;2024-01-10T08:44:30;-16.30;118.99
75217;HTU21D;63800;51.972;5.682;2024-01-10T08:46:55;-16.30;118.99
75217;HTU21D;63800;51.972;5.682;2024-01-10T08:49:21;-16.26;118.99
75217;HTU21D;63800;51.972;5.682;2024-01-10T08:51:46;-16.20;118.99
75217;HTU21D;63800;51.972;5.682;2024-01-10T08:54:12;-16.24;118.99
75217;HTU21D;63800;51.972;5.682;2024-01-10T08:56:43;-16.25;118.99
75217;HTU21D;63800;51.972;5.682;2024-01-10T08:59:10;-16.17;118.99
75217;HTU21D;63800;51.972;5.682;2024-01-10T09:01:36;-16.23;118.99
75217;HTU21D;63800;51.972;5.682;2024-01-10T09:04:04;-16.21;118.99
75217;HTU21D;63800;51.972;5.682;2024-01-10T09:06:31;-15.99;118.99
75217;HTU21D;63800;51.972;5.682;2024-01-10T09:08:56;-16.07;118.99
75217;HTU21D;63800;51.972;5.682;2024-01-10T09:11:22;-16.08;118.99
75217;HTU21D;63800;51.972;5.682;2024-01-10T09:13:47;-16.02;118.99
75217;HTU21D;63800;51.972;5.682;2024-01-10T09:16:13;-15.95;118.99
75217;HTU21D;63800;51.972;5.682;2024-01-10T09:18:39;-15.99;118.99
75217;HTU21D;63800;51.972;5.682;2024-01-10T09:21:05;-15.90;118.99
75217;HTU21D;63800;51.972;5.682;2024-01-10T09:23:30;-15.82;118.99
75217;HTU21D;63800;51.972;5.682;2024-01-10T09:25:56;-15.82;118.99
75217;HTU21D;63800;51.972;5.682;2024-01-10T09:28:21;-15.77;118.99
75217;HTU21D;63800;51.972;5.682;2024-01-10T09:30:47;-15.83;118.99
75217;HTU21D;63800;51.972;5.682;2024-01-10T09:33:12;-15.84;118.99
75217;HTU21D;63800;51.972;5.682;2024-01-10T09:35:38;-15.78;118.99
75217;HTU21D;63800;51.972;5.682;2024-01-10T09:38:03;-15.69;118.99
75217;HTU21D;63800;51.972;5.682;2024-01-10T09:40:29;-15.69;118.99
75217;HTU21D;63800;51.972;5.682;2024-01-10T09:42:55;-15.54;118.99
75217;HTU21D;63800;51.972;5.682;2024-01-10T09:45:21;-15.61;118.99
75217;HTU21D;63800;51.972;5.682;2024-01-10T09:47:51;-15.62;118.99
75217;HTU21D;63800;51.972;5.682;2024-01-10T09:50:17;-15.52;118.99
75217;HTU21D;63800;51.972;5.682;2024-01-10T09:52:53;-15.53;118.99
75217;HTU21D;63800;51.972;5.682;2024-01-10T09:55:21;-15.48;118.99
75217;HTU21D;63800;51.972;5.682;2024-01-10T09:57:47;-15.49;118.99
75217;HTU21D;63800;51.972;5.682;2024-01-10T10:00:15;-15.49;118.99
75217;HTU21D;63800;51.972;5.682;2024-01-10T10:02:41;-15.41;118.99
75217;HTU21D;63800;51.972;5.682;2024-01-10T10:05:27;-15.40;118.99
75217;HTU21D;63800;51.972;5.682;2024-01-10T10:07:53;-15.41;118.99
75217;HTU21D;63800;51.972;5.682;2024-01-10T10:10:19;-15.34;118.99
75217;HTU21D;63800;51.972;5.682;2024-01-10T10:12:49;-15.31;118.99
75217;HTU21D;63800;51.972;5.682;2024-01-10T10:15:16;-15.30;118.99
75217;HTU21D;63800;51.972;5.682;2024-01-10T10:17:45;-15.23;118.99
75217;HTU21D;63800;51.972;5.682;2024-01-10T10:22:40;-15.11;118.99
75217;HTU21D;63800;51.972;5.682;2024-01-10T10:25:07;-15.13;118.99
75217;HTU21D;63800;51.972;5.682;2024-01-10T10:27:36;-15.10;118.99
75217;HTU21D;63800;51.972;5.682;2024-01-10T10:30:02;-15.11;118.99
75217;HTU21D;63800;51.972;5.682;2024-01-10T10:32:27;-15.02;118.99
75217;HTU21D;63800;51.972;5.682;2024-01-10T10:34:56;-14.94;118.99
75217;HTU21D;63800;51.972;5.682;2024-01-10T10:37:21;-14.89;118.99
75217;HTU21D;63800;51.972;5.682;2024-01-10T10:39:47;-14.85;118.99
75217;HTU21D;63800;51.972;5.682;2024-01-10T10:42:14;-14.81;118.99
75217;HTU21D;63800;51.972;5.682;2024-01-10T10:44:40;-14.61;118.99
75217;HTU21D;63800;51.972;5.682;2024-01-10T10:47:09;-14.55;118.99
75217;HTU21D;63800;51.972;5.682;2024-01-10T10:49:43;-14.37;118.99
75217;HTU21D;63800;51.972;5.682;2024-01-10T10:52:10;-14.27;118.99
75217;HTU21D;63800;51.972;5.682;2024-01-10T10:54:36;-14.21;118.99
75217;HTU21D;63800;51.972;5.682;2024-01-10T10:57:03;-14.04;118.99
75217;HTU21D;63800;51.972;5.682;2024-01-10T10:59:33;-13.91;118.99
75217;HTU21D;63800;51.972;5.682;2024-01-10T11:01:59;-13.83;118.99
75217;HTU21D;63800;51.972;5.682;2024-01-10T11:04:25;-13.78;118.99
75217;HTU21D;63800;51.972;5.682;2024-01-10T11:06:51;-13.67;118.99
75217;HTU21D;63800;51.972;5.682;2024-01-10T11:09:18;-13.55;118.99
75217;HTU21D;63800;51.972;5.682;2024-01-10T11:17:00;-13.09;118.99
75217;HTU21D;63800;51.972;5.682;2024-01-10T11:24:24;-13.00;118.99
75217;HTU21D;63800;51.972;5.682;2024-01-10T11:26:50;-12.94;118.99
75217;HTU21D;63800;51.972;5.682;2024-01-10T11:29:15;-12.83;118.99
75217;HTU21D;63800;51.972;5.682;2024-01-10T11:31:41;-12.67;118.99
75217;HTU21D;63800;51.972;5.682;2024-01-10T11:34:08;-12.62;118.99
75217;HTU21D;63800;51.972;5.682;2024-01-10T11:36:34;-12.62;118.99
75217;HTU21D;63800;51.972;5.682;2024-01-10T11:39:03;-12.21;118.99
75217;HTU21D;63800;51.972;5.682;2024-01-10T11:41:37;-12.09;118.99
75217;HTU21D;63800;51.972;5.682;2024-01-10T11:46:37;-11.97;118.99
75217;HTU21D;63800;51.972;5.682;2024-01-10T11:49:03;-11.88;118.99
75217;HTU21D;63800;51.972;5.682;2024-01-10T11:51:29;-11.76;118.99
75217;HTU21D;63800;51.972;5.682;2024-01-10T11:53:55;-11.73;118.99
75217;HTU21D;63800;51.972;5.682;2024-01-10T11:56:22;-11.62;118.99
75217;HTU21D;63800;51.972;5.682;2024-01-10T11:59:05;-11.60;118.99
75217;HTU21D;63800;51.972;5.682;2024-01-10T12:01:33;-11.35;118.99
75217;HTU21D;63800;51.972;5.682;2024-01-10T12:03:59;-11.17;118.99
75217;HTU21D;63800;51.972;5.682;2024-01-10T12:06:26;-10.61;118.99
75217;HTU21D;63800;51.972;5.682;2024-01-10T12:08:51;-10.81;118.99
75217;HTU21D;63800;51.972;5.682;2024-01-10T12:11:17;-10.67;118.99
75217;HTU21D;63800;51.972;5.682;2024-01-10T12:13:43;-10.16;118.99
75217;HTU21D;63800;51.972;5.682;2024-01-10T12:16:11;-10.00;118.99
75217;HTU21D;63800;51.972;5.682;2024-01-10T12:18:37;-9.23;118.99
75217;HTU21D;63800;51.972;5.682;2024-01-10T12:21:03;-9.71;118.99
75217;HTU21D;63800;51.972;5.682;2024-01-10T12:23:30;-9.27;118.99
75217;HTU21D;63800;51.972;5.682;2024-01-10T12:25:59;-9.56;118.99
75217;HTU21D;63800;51.972;5.682;2024-01-10T12:28:26;-9.19;118.99
75217;HTU21D;63800;51.972;5.682;2024-01-10T12:30:52;-9.07;118.99
75217;HTU21D;63800;51.972;5.682;2024-01-10T12:33:17;-8.48;118.99
75217;HTU21D;63800;51.972;5.682;2024-01-10T12:35:43;-9.31;118.99
75217;HTU21D;63800;51.972;5.682;2024-01-10T12:38:11;-8.92;118.99
75217;HTU21D;63800;51.972;5.682;2024-01-10T12:40:37;-8.43;118.99
75217;HTU21D;63800;51.972;5.682;2024-01-10T12:43:03;-8.87;118.99
75217;HTU21D;63800;51.972;5.682;2024-01-10T12:45:29;-8.35;118.99
75217;HTU21D;63800;51.972;5.682;2024-01-10T12:47:54;-8.93;118.99
75217;HTU21D;63800;51.972;5.682;2024-01-10T12:50:20;-8.48;118.99
75217;HTU21D;63800;51.972;5.682;2024-01-10T12:52:46;-9.32;118.99
75217;HTU21D;63800;51.972;5.682;2024-01-10T12:55:12;-10.31;118.99
75217;HTU21D;63800;51.972;5.682;2024-01-10T12:57:37;-11.42;118.99
75217;HTU21D;63800;51.972;5.682;2024-01-10T13:00:03;-11.40;118.99
75217;HTU21D;63800;51.972;5.682;2024-01-10T13:02:32;-12.15;118.99
75217;HTU21D;63800;51.972;5.682;2024-01-10T13:05:05;-12.07;118.99
75217;HTU21D;63800;51.972;5.682;2024-01-10T13:07:37;-12.54;118.99
75217;HTU21D;63800;51.972;5.682;2024-01-10T13:10:02;-12.63;118.99
75217;HTU21D;63800;51.972;5.682;2024-01-10T13:12:28;-12.84;118.99
75217;HTU21D;63800;51.972;5.682;2024-01-10T13:14:53;-12.78;118.99
75217;HTU21D;63800;51.972;5.682;2024-01-10T13:17:19;-12.97;118.99
75217;HTU21D;63800;51.972;5.682;2024-01-10T13:19:47;-12.92;118.99
75217;HTU21D;63800;51.972;5.682;2024-01-10T13:22:17;-13.01;118.99
75217;HTU21D;63800;51.972;5.682;2024-01-10T13:24:47;-13.11;118.99
75217;HTU21D;63800;51.972;5.682;2024-01-10T13:27:13;-13.06;118.99
75217;HTU21D;63800;51.972;5.682;2024-01-10T13:29:38;-13.00;118.99
75217;HTU21D;63800;51.972;5.682;2024-01-10T13:32:05;-13.17;118.99
75217;HTU21D;63800;51.972;5.682;2024-01-10T13:34:31;-13.17;118.99
75217;HTU21D;63800;51.972;5.682;2024-01-10T13:36:57;-13.24;118.99
75217;HTU21D;63800;51.972;5.682;2024-01-10T13:39:22;-13.31;118.99
75217;HTU21D;63800;51.972;5.682;2024-01-10T13:41:48;-13.31;118.99
75217;HTU21D;63800;51.972;5.682;2024-01-10T13:44:13;-13.44;118.99
75217;HTU21D;63800;51.972;5.682;2024-01-10T13:46:39;-13.39;118.99
75217;HTU21D;63800;51.972;5.682;2024-01-10T13:49:05;-13.44;118.99
75217;HTU21D;63800;51.972;5.682;2024-01-10T13:51:30;-13.44;118.99
75217;HTU21D;63800;51.972;5.682;2024-01-10T13:53:57;-13.43;118.99
75217;HTU21D;63800;51.972;5.682;2024-01-10T13:56:22;-13.33;118.99
75217;HTU21D;63800;51.972;5.682;2024-01-10T13:58:48;-13.40;118.99
75217;HTU21D;63800;51.972;5.682;2024-01-10T14:01:14;-13.31;118.99
75217;HTU21D;63800;51.972;5.682;2024-01-10T14:03:39;-13.39;118.99
75217;HTU21D;63800;51.972;5.682;2024-01-10T14:06:05;-13.38;118.99
75217;HTU21D;63800;51.972;5.682;2024-01-10T14:08:31;-13.49;118.99
75217;HTU21D;63800;51.972;5.682;2024-01-10T14:10:56;-13.56;118.99
75217;HTU21D;63800;51.972;5.682;2024-01-10T14:13:23;-13.56;118.99
75217;HTU21D;63800;51.972;5.682;2024-01-10T14:15:49;-13.62;118.99
75217;HTU21D;63800;51.972;5.682;2024-01-10T14:18:14;-13.53;118.99
75217;HTU21D;63800;51.972;5.682;2024-01-10T14:20:40;-13.57;118.99
75217;HTU21D;63800;51.972;5.682;2024-01-10T14:23:05;-13.67;118.99
75217;HTU21D;63800;51.972;5.682;2024-01-10T14:25:31;-13.71;118.99
75217;HTU21D;63800;51.972;5.682;2024-01-10T14:27:57;-13.61;118.99
75217;HTU21D;63800;51.972;5.682;2024-01-10T14:30:24;-13.69;118.99
75217;HTU21D;63800;51.972;5.682;2024-01-10T14:32:50;-13.77;118.99
75217;HTU21D;63800;51.972;5.682;2024-01-10T14:35:16;-13.82;118.99
75217;HTU21D;63800;51.972;5.682;2024-01-10T14:37:42;-13.81;118.99
75217;HTU21D;63800;51.972;5.682;2024-01-10T14:40:08;-13.78;118.99
75217;HTU21D;63800;51.972;5.682;2024-01-10T14:42:33;-13.71;118.99
75217;HTU21D;63800;51.972;5.682;2024-01-10T14:45:00;-13.73;118.99
75217;HTU21D;63800;51.972;5.682;2024-01-10T14:47:26;-13.69;118.99
75217;HTU21D;63800;51.972;5.682;2024-01-10T14:49:51;-13.80;118.99
75217;HTU21D;63800;51.972;5.682;2024-01-10T14:52:17;-13.73;118.99
75217;HTU21D;63800;51.972;5.682;2024-01-10T14:54:42;-13.85;118.99
75217;HTU21D;63800;51.972;5.682;2024-01-10T14:57:08;-13.68;118.99